sensor_id;sensor_type;location;lat;lon;timestamp;P1;durP1;ratioP1;P2;durP2;ratioP2
57325;SDS011;43161;50.950;18.224;2023-07-30T00:01:20;12.30;;;3.40;;
57325;SDS011;43161;50.950;18.224;2023-07-30T00:03:45;10.60;;;3.70;;
57325;SDS011;43161;50.950;18.224;2023-07-30T00:06:11;9.90;;;3.20;;
57325;SDS011;43161;50.950;18.224;2023-07-30T00:08:36;8.90;;;3.20;;
57325;SDS011;43161;50.950;18.224;2023-07-30T00:11:02;11.70;;;3.80;;
57325;SDS011;43161;50.950;18.224;2023-07-30T00:13:28;10.00;;;3.70;;
57325;SDS011;43161;50.950;18.224;2023-07-30T00:15:53;9.10;;;3.40;;
57325;SDS011;43161;50.950;18.224;2023-07-30T00:18:19;12.60;;;4.10;;
57325;SDS011;43161;50.950;18.224;2023-07-30T00:20:45;9.70;;;3.60;;
57325;SDS011;43161;50.950;18.224;2023-07-30T00:23:10;9.20;;;3.80;;
57325;SDS011;43161;50.950;18.224;2023-07-30T00:25:36;10.10;;;3.60;;
57325;SDS011;43161;50.950;18.224;2023-07-30T00:28:02;11.50;;;3.70;;
57325;SDS011;43161;50.950;18.224;2023-07-30T00:30:28;11.70;;;3.60;;
57325;SDS011;43161;50.950;18.224;2023-07-30T00:32:53;10.00;;;3.60;;
57325;SDS011;43161;50.950;18.224;2023-07-30T00:35:19;10.00;;;3.70;;
57325;SDS011;43161;50.950;18.224;2023-07-30T00:37:44;9.10;;;3.50;;
57325;SDS011;43161;50.950;18.224;2023-07-30T00:40:11;9.10;;;3.50;;
57325;SDS011;43161;50.950;18.224;2023-07-30T00:42:37;10.00;;;3.30;;
57325;SDS011;43161;50.950;18.224;2023-07-30T00:45:03;12.70;;;3.60;;
57325;SDS011;43161;50.950;18.224;2023-07-30T00:47:29;9.40;;;3.00;;
57325;SDS011;43161;50.950;18.224;2023-07-30T00:49:55;11.00;;;3.70;;
57325;SDS011;43161;50.950;18.224;2023-07-30T00:52:21;9.50;;;3.30;;
57325;SDS011;43161;50.950;18.224;2023-07-30T00:54:48;10.60;;;3.00;;
57325;SDS011;43161;50.950;18.224;2023-07-30T00:57:15;9.90;;;3.50;;
57325;SDS011;43161;50.950;18.224;2023-07-30T00:59:42;14.10;;;3.70;;
57325;SDS011;43161;50.950;18.224;2023-07-30T01:02:08;9.80;;;3.60;;
57325;SDS011;43161;50.950;18.224;2023-07-30T01:04:34;10.00;;;3.70;;
57325;SDS011;43161;50.950;18.224;2023-07-30T01:07:02;11.30;;;3.80;;
57325;SDS011;43161;50.950;18.224;2023-07-30T01:09:29;8.20;;;3.40;;
57325;SDS011;43161;50.950;18.224;2023-07-30T01:11:54;10.80;;;3.60;;
57325;SDS011;43161;50.950;18.224;2023-07-30T01:14:21;10.70;;;3.70;;
57325;SDS011;43161;50.950;18.224;2023-07-30T01:16:48;9.70;;;3.20;;
57325;SDS011;43161;50.950;18.224;2023-07-30T01:19:14;10.80;;;3.40;;
57325;SDS011;43161;50.950;18.224;2023-07-30T01:21:40;9.00;;;3.60;;
57325;SDS011;43161;50.950;18.224;2023-07-30T01:24:05;11.00;;;3.40;;
57325;SDS011;43161;50.950;18.224;2023-07-30T01:26:43;10.00;;;3.20;;
57325;SDS011;43161;50.950;18.224;2023-07-30T01:29:20;10.30;;;3.60;;
57325;SDS011;43161;50.950;18.224;2023-07-30T01:31:49;12.00;;;3.00;;
57325;SDS011;43161;50.950;18.224;2023-07-30T01:34:21;12.40;;;3.40;;
57325;SDS011;43161;50.950;18.224;2023-07-30T01:36:49;8.90;;;3.40;;
57325;SDS011;43161;50.950;18.224;2023-07-30T01:39:15;10.40;;;3.60;;
57325;SDS011;43161;50.950;18.224;2023-07-30T01:41:41;11.20;;;3.80;;
57325;SDS011;43161;50.950;18.224;2023-07-30T01:44:06;11.80;;;3.90;;
57325;SDS011;43161;50.950;18.224;2023-07-30T01:46:32;10.90;;;3.60;;
57325;SDS011;43161;50.950;18.224;2023-07-30T01:48:58;10.20;;;3.70;;
57325;SDS011;43161;50.950;18.224;2023-07-30T01:51:24;9.50;;;3.70;;
57325;SDS011;43161;50.950;18.224;2023-07-30T01:53:50;10.60;;;3.70;;
57325;SDS011;43161;50.950;18.224;2023-07-30T01:56:16;11.50;;;3.90;;
57325;SDS011;43161;50.950;18.224;2023-07-30T01:58:42;9.40;;;3.70;;
57325;SDS011;43161;50.950;18.224;2023-07-30T02:01:07;12.50;;;3.90;;
57325;SDS011;43161;50.950;18.224;2023-07-30T02:03:34;13.60;;;3.60;;
57325;SDS011;43161;50.950;18.224;2023-07-30T02:06:00;11.20;;;3.70;;
57325;SDS011;43161;50.950;18.224;2023-07-30T02:08:26;12.50;;;3.60;;
57325;SDS011;43161;50.950;18.224;2023-07-30T02:10:58;9.60;;;3.70;;
57325;SDS011;43161;50.950;18.224;2023-07-30T02:13:24;13.80;;;3.60;;
57325;SDS011;43161;50.950;18.224;2023-07-30T02:15:50;11.50;;;3.20;;
57325;SDS011;43161;50.950;18.224;2023-07-30T02:18:17;10.80;;;3.30;;
57325;SDS011;43161;50.950;18.224;2023-07-30T02:20:42;11.80;;;3.90;;
57325;SDS011;43161;50.950;18.224;2023-07-30T02:23:08;10.70;;;3.40;;
57325;SDS011;43161;50.950;18.224;2023-07-30T02:25:34;9.60;;;3.20;;
57325;SDS011;43161;50.950;18.224;2023-07-30T02:28:00;11.20;;;3.20;;
57325;SDS011;43161;50.950;18.224;2023-07-30T02:30:27;13.40;;;2.90;;
57325;SDS011;43161;50.950;18.224;2023-07-30T02:32:53;9.80;;;3.60;;
57325;SDS011;43161;50.950;18.224;2023-07-30T02:35:19;10.70;;;3.20;;
57325;SDS011;43161;50.950;18.224;2023-07-30T02:37:45;9.30;;;2.90;;
57325;SDS011;43161;50.950;18.224;2023-07-30T02:40:10;7.60;;;2.90;;
57325;SDS011;43161;50.950;18.224;2023-07-30T02:42:37;8.50;;;2.50;;
57325;SDS011;43161;50.950;18.224;2023-07-30T02:45:03;11.20;;;3.10;;
57325;SDS011;43161;50.950;18.224;2023-07-30T02:47:29;9.40;;;2.50;;
57325;SDS011;43161;50.950;18.224;2023-07-30T02:49:55;7.70;;;2.50;;
57325;SDS011;43161;50.950;18.224;2023-07-30T02:52:20;9.10;;;2.20;;
57325;SDS011;43161;50.950;18.224;2023-07-30T02:54:46;8.40;;;2.40;;
57325;SDS011;43161;50.950;18.224;2023-07-30T02:57:11;7.80;;;2.50;;
57325;SDS011;43161;50.950;18.224;2023-07-30T02:59:38;9.10;;;2.40;;
57325;SDS011;43161;50.950;18.224;2023-07-30T03:02:05;9.10;;;2.50;;
57325;SDS011;43161;50.950;18.224;2023-07-30T03:04:31;8.30;;;2.30;;
57325;SDS011;43161;50.950;18.224;2023-07-30T03:06:57;9.80;;;2.50;;
57325;SDS011;43161;50.950;18.224;2023-07-30T03:09:23;9.50;;;2.20;;
57325;SDS011;43161;50.950;18.224;2023-07-30T03:11:51;9.10;;;2.70;;
57325;SDS011;43161;50.950;18.224;2023-07-30T03:14:17;9.20;;;2.70;;
57325;SDS011;43161;50.950;18.224;2023-07-30T03:16:46;8.90;;;3.10;;
57325;SDS011;43161;50.950;18.224;2023-07-30T03:19:13;9.10;;;2.50;;
57325;SDS011;43161;50.950;18.224;2023-07-30T03:21:39;11.80;;;2.90;;
57325;SDS011;43161;50.950;18.224;2023-07-30T03:24:04;9.70;;;2.70;;
57325;SDS011;43161;50.950;18.224;2023-07-30T03:26:30;8.10;;;2.40;;
57325;SDS011;43161;50.950;18.224;2023-07-30T03:28:56;8.40;;;2.80;;
57325;SDS011;43161;50.950;18.224;2023-07-30T03:31:22;9.10;;;2.40;;
57325;SDS011;43161;50.950;18.224;2023-07-30T03:33:47;8.20;;;2.40;;
57325;SDS011;43161;50.950;18.224;2023-07-30T03:36:13;7.90;;;2.60;;
57325;SDS011;43161;50.950;18.224;2023-07-30T03:38:39;8.00;;;2.60;;
57325;SDS011;43161;50.950;18.224;2023-07-30T03:41:05;8.70;;;2.20;;
57325;SDS011;43161;50.950;18.224;2023-07-30T03:43:34;8.50;;;2.40;;
57325;SDS011;43161;50.950;18.224;2023-07-30T03:46:00;10.70;;;2.90;;
57325;SDS011;43161;50.950;18.224;2023-07-30T03:48:26;11.00;;;2.30;;
57325;SDS011;43161;50.950;18.224;2023-07-30T03:50:52;9.00;;;2.60;;
57325;SDS011;43161;50.950;18.224;2023-07-30T03:53:18;7.50;;;2.30;;
57325;SDS011;43161;50.950;18.224;2023-07-30T03:55:44;11.40;;;2.70;;
57325;SDS011;43161;50.950;18.224;2023-07-30T03:58:09;10.00;;;2.40;;
57325;SDS011;43161;50.950;18.224;2023-07-30T04:00:35;10.90;;;2.60;;
57325;SDS011;43161;50.950;18.224;2023-07-30T04:03:01;9.70;;;2.80;;
57325;SDS011;43161;50.950;18.224;2023-07-30T04:05:26;10.60;;;2.70;;
57325;SDS011;43161;50.950;18.224;2023-07-30T04:07:52;10.30;;;2.60;;
57325;SDS011;43161;50.950;18.224;2023-07-30T04:10:18;9.40;;;2.60;;
57325;SDS011;43161;50.950;18.224;2023-07-30T04:12:44;8.50;;;2.80;;
57325;SDS011;43161;50.950;18.224;2023-07-30T04:15:10;8.50;;;2.50;;
57325;SDS011;43161;50.950;18.224;2023-07-30T04:17:36;9.80;;;2.90;;
57325;SDS011;43161;50.950;18.224;2023-07-30T04:20:03;9.60;;;2.40;;
57325;SDS011;43161;50.950;18.224;2023-07-30T04:22:29;8.70;;;2.40;;
57325;SDS011;43161;50.950;18.224;2023-07-30T04:24:55;9.20;;;2.80;;
57325;SDS011;43161;50.950;18.224;2023-07-30T04:27:21;10.20;;;2.80;;
57325;SDS011;43161;50.950;18.224;2023-07-30T04:29:47;9.90;;;2.60;;
57325;SDS011;43161;50.950;18.224;2023-07-30T04:32:13;9.30;;;2.50;;
57325;SDS011;43161;50.950;18.224;2023-07-30T04:34:39;8.10;;;2.50;;
57325;SDS011;43161;50.950;18.224;2023-07-30T04:37:05;7.70;;;2.40;;
57325;SDS011;43161;50.950;18.224;2023-07-30T04:39:34;5.50;;;1.90;;
57325;SDS011;43161;50.950;18.224;2023-07-30T04:42:00;9.20;;;2.10;;
57325;SDS011;43161;50.950;18.224;2023-07-30T04:44:26;7.40;;;2.00;;
57325;SDS011;43161;50.950;18.224;2023-07-30T04:46:52;6.50;;;2.10;;
57325;SDS011;43161;50.950;18.224;2023-07-30T04:49:18;10.40;;;2.20;;
57325;SDS011;43161;50.950;18.224;2023-07-30T04:51:44;6.90;;;2.10;;
57325;SDS011;43161;50.950;18.224;2023-07-30T04:54:09;6.00;;;2.10;;
57325;SDS011;43161;50.950;18.224;2023-07-30T04:56:35;9.80;;;3.00;;
57325;SDS011;43161;50.950;18.224;2023-07-30T04:59:01;7.70;;;2.60;;
57325;SDS011;43161;50.950;18.224;2023-07-30T05:01:28;8.90;;;2.10;;
57325;SDS011;43161;50.950;18.224;2023-07-30T05:03:53;9.10;;;2.30;;
57325;SDS011;43161;50.950;18.224;2023-07-30T05:06:19;7.30;;;2.10;;
57325;SDS011;43161;50.950;18.224;2023-07-30T05:08:45;9.20;;;2.30;;
57325;SDS011;43161;50.950;18.224;2023-07-30T05:11:10;10.70;;;3.10;;
57325;SDS011;43161;50.950;18.224;2023-07-30T05:13:36;10.30;;;3.20;;
57325;SDS011;43161;50.950;18.224;2023-07-30T05:16:02;9.70;;;3.40;;
57325;SDS011;43161;50.950;18.224;2023-07-30T05:18:27;11.30;;;3.10;;
57325;SDS011;43161;50.950;18.224;2023-07-30T05:20:54;7.50;;;2.30;;
57325;SDS011;43161;50.950;18.224;2023-07-30T05:23:20;6.50;;;1.90;;
57325;SDS011;43161;50.950;18.224;2023-07-30T05:25:45;9.70;;;2.40;;
57325;SDS011;43161;50.950;18.224;2023-07-30T05:28:11;7.90;;;2.10;;
57325;SDS011;43161;50.950;18.224;2023-07-30T05:30:37;7.80;;;2.00;;
57325;SDS011;43161;50.950;18.224;2023-07-30T05:33:03;8.10;;;1.80;;
57325;SDS011;43161;50.950;18.224;2023-07-30T05:35:29;6.60;;;1.80;;
57325;SDS011;43161;50.950;18.224;2023-07-30T05:37:54;5.70;;;1.80;;
57325;SDS011;43161;50.950;18.224;2023-07-30T05:40:20;8.40;;;1.90;;
57325;SDS011;43161;50.950;18.224;2023-07-30T05:42:46;5.80;;;1.80;;
57325;SDS011;43161;50.950;18.224;2023-07-30T05:45:12;9.60;;;1.90;;
57325;SDS011;43161;50.950;18.224;2023-07-30T05:47:38;7.80;;;1.80;;
57325;SDS011;43161;50.950;18.224;2023-07-30T05:50:04;6.90;;;1.70;;
57325;SDS011;43161;50.950;18.224;2023-07-30T05:52:30;5.60;;;1.80;;
57325;SDS011;43161;50.950;18.224;2023-07-30T05:54:56;7.20;;;2.10;;
57325;SDS011;43161;50.950;18.224;2023-07-30T05:57:22;7.40;;;1.70;;
57325;SDS011;43161;50.950;18.224;2023-07-30T05:59:48;8.00;;;1.90;;
57325;SDS011;43161;50.950;18.224;2023-07-30T06:02:13;8.50;;;1.70;;
57325;SDS011;43161;50.950;18.224;2023-07-30T06:04:40;7.60;;;1.90;;
57325;SDS011;43161;50.950;18.224;2023-07-30T06:07:06;9.00;;;1.90;;
57325;SDS011;43161;50.950;18.224;2023-07-30T06:09:32;4.90;;;1.80;;
57325;SDS011;43161;50.950;18.224;2023-07-30T06:11:58;8.00;;;2.30;;
57325;SDS011;43161;50.950;18.224;2023-07-30T06:14:24;8.90;;;2.10;;
57325;SDS011;43161;50.950;18.224;2023-07-30T06:16:51;7.40;;;2.40;;
57325;SDS011;43161;50.950;18.224;2023-07-30T06:19:16;8.00;;;2.60;;
57325;SDS011;43161;50.950;18.224;2023-07-30T06:21:42;5.80;;;1.90;;
57325;SDS011;43161;50.950;18.224;2023-07-30T06:24:09;6.40;;;1.90;;
57325;SDS011;43161;50.950;18.224;2023-07-30T06:26:34;8.50;;;3.10;;
57325;SDS011;43161;50.950;18.224;2023-07-30T06:29:00;6.30;;;1.80;;
57325;SDS011;43161;50.950;18.224;2023-07-30T06:31:26;7.20;;;1.80;;
57325;SDS011;43161;50.950;18.224;2023-07-30T06:33:52;6.50;;;2.00;;
57325;SDS011;43161;50.950;18.224;2023-07-30T06:36:17;8.50;;;2.30;;
57325;SDS011;43161;50.950;18.224;2023-07-30T06:38:43;6.30;;;2.00;;
57325;SDS011;43161;50.950;18.224;2023-07-30T06:41:08;6.70;;;2.00;;
57325;SDS011;43161;50.950;18.224;2023-07-30T06:43:34;9.20;;;2.40;;
57325;SDS011;43161;50.950;18.224;2023-07-30T06:46:01;8.10;;;1.90;;
57325;SDS011;43161;50.950;18.224;2023-07-30T06:48:26;9.10;;;2.00;;
57325;SDS011;43161;50.950;18.224;2023-07-30T06:50:52;8.20;;;2.10;;
57325;SDS011;43161;50.950;18.224;2023-07-30T06:53:17;5.50;;;1.50;;
57325;SDS011;43161;50.950;18.224;2023-07-30T06:55:43;7.10;;;1.90;;
57325;SDS011;43161;50.950;18.224;2023-07-30T06:58:09;10.90;;;2.20;;
57325;SDS011;43161;50.950;18.224;2023-07-30T07:00:35;8.50;;;2.00;;
57325;SDS011;43161;50.950;18.224;2023-07-30T07:03:01;6.70;;;1.80;;
57325;SDS011;43161;50.950;18.224;2023-07-30T07:05:26;6.90;;;1.80;;
57325;SDS011;43161;50.950;18.224;2023-07-30T07:07:52;6.10;;;1.80;;
57325;SDS011;43161;50.950;18.224;2023-07-30T07:10:18;8.10;;;2.50;;
57325;SDS011;43161;50.950;18.224;2023-07-30T07:12:43;7.10;;;2.50;;
57325;SDS011;43161;50.950;18.224;2023-07-30T07:15:09;7.50;;;2.10;;
57325;SDS011;43161;50.950;18.224;2023-07-30T07:17:34;7.40;;;1.80;;
57325;SDS011;43161;50.950;18.224;2023-07-30T07:20:00;7.90;;;1.80;;
57325;SDS011;43161;50.950;18.224;2023-07-30T07:22:26;6.50;;;1.70;;
57325;SDS011;43161;50.950;18.224;2023-07-30T07:24:52;6.50;;;1.70;;
57325;SDS011;43161;50.950;18.224;2023-07-30T07:27:18;7.10;;;2.10;;
57325;SDS011;43161;50.950;18.224;2023-07-30T07:29:45;6.40;;;2.40;;
57325;SDS011;43161;50.950;18.224;2023-07-30T07:32:11;6.50;;;2.10;;
57325;SDS011;43161;50.950;18.224;2023-07-30T07:34:36;6.60;;;2.10;;
57325;SDS011;43161;50.950;18.224;2023-07-30T07:37:02;7.10;;;2.00;;
57325;SDS011;43161;50.950;18.224;2023-07-30T07:39:28;8.50;;;2.20;;
57325;SDS011;43161;50.950;18.224;2023-07-30T07:41:55;8.20;;;2.20;;
57325;SDS011;43161;50.950;18.224;2023-07-30T07:44:21;8.60;;;1.90;;
57325;SDS011;43161;50.950;18.224;2023-07-30T07:46:47;7.30;;;2.20;;
57325;SDS011;43161;50.950;18.224;2023-07-30T07:49:13;6.60;;;1.90;;
57325;SDS011;43161;50.950;18.224;2023-07-30T07:51:39;9.90;;;2.30;;
57325;SDS011;43161;50.950;18.224;2023-07-30T07:54:04;6.80;;;2.40;;
57325;SDS011;43161;50.950;18.224;2023-07-30T07:56:30;7.60;;;2.20;;
57325;SDS011;43161;50.950;18.224;2023-07-30T07:58:57;8.30;;;2.50;;
57325;SDS011;43161;50.950;18.224;2023-07-30T08:01:23;6.80;;;2.20;;
57325;SDS011;43161;50.950;18.224;2023-07-30T08:03:48;7.00;;;2.20;;
57325;SDS011;43161;50.950;18.224;2023-07-30T08:06:14;6.70;;;2.10;;
57325;SDS011;43161;50.950;18.224;2023-07-30T08:08:40;6.80;;;2.40;;
57325;SDS011;43161;50.950;18.224;2023-07-30T08:11:06;7.00;;;2.50;;
57325;SDS011;43161;50.950;18.224;2023-07-30T08:13:33;8.00;;;2.20;;
57325;SDS011;43161;50.950;18.224;2023-07-30T08:15:59;6.40;;;1.90;;
57325;SDS011;43161;50.950;18.224;2023-07-30T08:18:25;7.70;;;2.00;;
57325;SDS011;43161;50.950;18.224;2023-07-30T08:20:51;7.20;;;2.20;;
57325;SDS011;43161;50.950;18.224;2023-07-30T08:23:17;7.00;;;2.20;;
57325;SDS011;43161;50.950;18.224;2023-07-30T08:25:43;6.90;;;2.20;;
57325;SDS011;43161;50.950;18.224;2023-07-30T08:28:08;6.10;;;2.30;;
57325;SDS011;43161;50.950;18.224;2023-07-30T08:30:34;5.50;;;2.10;;
57325;SDS011;43161;50.950;18.224;2023-07-30T08:33:00;6.80;;;2.00;;
57325;SDS011;43161;50.950;18.224;2023-07-30T08:35:25;6.50;;;2.20;;
57325;SDS011;43161;50.950;18.224;2023-07-30T08:37:52;6.40;;;2.10;;
57325;SDS011;43161;50.950;18.224;2023-07-30T08:40:20;6.00;;;2.50;;
57325;SDS011;43161;50.950;18.224;2023-07-30T08:42:49;5.60;;;2.00;;
57325;SDS011;43161;50.950;18.224;2023-07-30T08:45:16;7.20;;;2.40;;
57325;SDS011;43161;50.950;18.224;2023-07-30T08:47:42;7.00;;;2.40;;
57325;SDS011;43161;50.950;18.224;2023-07-30T08:50:08;8.00;;;2.20;;
57325;SDS011;43161;50.950;18.224;2023-07-30T08:52:34;8.30;;;2.00;;
57325;SDS011;43161;50.950;18.224;2023-07-30T08:55:01;7.70;;;2.10;;
57325;SDS011;43161;50.950;18.224;2023-07-30T08:57:28;5.40;;;1.90;;
57325;SDS011;43161;50.950;18.224;2023-07-30T09:02:44;7.00;;;1.90;;
57325;SDS011;43161;50.950;18.224;2023-07-30T09:05:13;8.50;;;2.50;;
57325;SDS011;43161;50.950;18.224;2023-07-30T09:07:39;7.20;;;2.10;;
57325;SDS011;43161;50.950;18.224;2023-07-30T09:10:05;8.60;;;3.10;;
57325;SDS011;43161;50.950;18.224;2023-07-30T09:12:32;7.10;;;2.30;;
57325;SDS011;43161;50.950;18.224;2023-07-30T09:14:58;6.50;;;1.90;;
57325;SDS011;43161;50.950;18.224;2023-07-30T09:17:24;8.90;;;1.90;;
57325;SDS011;43161;50.950;18.224;2023-07-30T09:19:51;6.50;;;2.10;;
57325;SDS011;43161;50.950;18.224;2023-07-30T09:22:24;7.80;;;1.90;;
57325;SDS011;43161;50.950;18.224;2023-07-30T09:27:22;7.30;;;2.50;;
57325;SDS011;43161;50.950;18.224;2023-07-30T09:29:50;5.70;;;1.80;;
57325;SDS011;43161;50.950;18.224;2023-07-30T09:32:26;8.40;;;2.20;;
57325;SDS011;43161;50.950;18.224;2023-07-30T09:34:56;7.00;;;2.10;;
57325;SDS011;43161;50.950;18.224;2023-07-30T09:37:40;5.50;;;1.60;;
57325;SDS011;43161;50.950;18.224;2023-07-30T09:40:12;5.20;;;1.80;;
57325;SDS011;43161;50.950;18.224;2023-07-30T09:42:42;6.20;;;1.80;;
57325;SDS011;43161;50.950;18.224;2023-07-30T09:47:53;7.10;;;2.00;;
57325;SDS011;43161;50.950;18.224;2023-07-30T09:50:19;7.20;;;2.20;;
57325;SDS011;43161;50.950;18.224;2023-07-30T09:52:45;6.00;;;1.70;;
57325;SDS011;43161;50.950;18.224;2023-07-30T09:55:11;6.40;;;2.00;;
57325;SDS011;43161;50.950;18.224;2023-07-30T09:57:37;5.40;;;1.80;;
57325;SDS011;43161;50.950;18.224;2023-07-30T10:00:04;6.20;;;1.80;;
57325;SDS011;43161;50.950;18.224;2023-07-30T10:02:31;8.10;;;1.90;;
57325;SDS011;43161;50.950;18.224;2023-07-30T10:04:59;5.90;;;1.70;;
57325;SDS011;43161;50.950;18.224;2023-07-30T10:07:25;6.30;;;1.50;;
57325;SDS011;43161;50.950;18.224;2023-07-30T10:09:51;6.10;;;1.80;;
57325;SDS011;43161;50.950;18.224;2023-07-30T10:12:22;7.50;;;1.70;;
57325;SDS011;43161;50.950;18.224;2023-07-30T10:14:51;6.90;;;2.00;;
57325;SDS011;43161;50.950;18.224;2023-07-30T10:17:17;6.00;;;1.60;;
57325;SDS011;43161;50.950;18.224;2023-07-30T10:19:47;6.80;;;1.80;;
57325;SDS011;43161;50.950;18.224;2023-07-30T10:22:20;4.00;;;1.20;;
57325;SDS011;43161;50.950;18.224;2023-07-30T10:43:45;3.40;;;1.20;;
57325;SDS011;43161;50.950;18.224;2023-07-30T10:46:13;4.80;;;1.50;;
57325;SDS011;43161;50.950;18.224;2023-07-30T10:48:42;6.20;;;1.50;;
57325;SDS011;43161;50.950;18.224;2023-07-30T10:51:10;5.30;;;1.60;;
57325;SDS011;43161;50.950;18.224;2023-07-30T10:53:44;4.70;;;1.50;;
57325;SDS011;43161;50.950;18.224;2023-07-30T10:56:12;5.00;;;1.40;;
57325;SDS011;43161;50.950;18.224;2023-07-30T10:58:38;6.70;;;1.70;;
57325;SDS011;43161;50.950;18.224;2023-07-30T11:01:05;6.50;;;1.50;;
57325;SDS011;43161;50.950;18.224;2023-07-30T11:03:32;3.50;;;1.20;;
57325;SDS011;43161;50.950;18.224;2023-07-30T11:05:59;5.70;;;1.60;;
57325;SDS011;43161;50.950;18.224;2023-07-30T11:11:08;5.00;;;1.70;;
57325;SDS011;43161;50.950;18.224;2023-07-30T11:13:38;4.10;;;1.50;;
57325;SDS011;43161;50.950;18.224;2023-07-30T11:16:06;7.10;;;1.80;;
57325;SDS011;43161;50.950;18.224;2023-07-30T11:18:33;5.70;;;1.60;;
57325;SDS011;43161;50.950;18.224;2023-07-30T11:21:06;7.00;;;1.70;;
57325;SDS011;43161;50.950;18.224;2023-07-30T11:23:33;5.10;;;1.40;;
57325;SDS011;43161;50.950;18.224;2023-07-30T11:26:03;5.30;;;1.50;;
57325;SDS011;43161;50.950;18.224;2023-07-30T11:28:31;4.70;;;1.60;;
57325;SDS011;43161;50.950;18.224;2023-07-30T11:30:59;6.00;;;1.50;;
57325;SDS011;43161;50.950;18.224;2023-07-30T11:33:26;5.60;;;1.60;;
57325;SDS011;43161;50.950;18.224;2023-07-30T11:35:53;5.40;;;1.40;;
57325;SDS011;43161;50.950;18.224;2023-07-30T11:38:20;6.40;;;1.40;;
57325;SDS011;43161;50.950;18.224;2023-07-30T11:40:47;4.60;;;1.50;;
57325;SDS011;43161;50.950;18.224;2023-07-30T11:43:13;4.30;;;1.60;;
57325;SDS011;43161;50.950;18.224;2023-07-30T11:45:39;4.70;;;1.50;;
57325;SDS011;43161;50.950;18.224;2023-07-30T11:48:05;5.90;;;1.50;;
57325;SDS011;43161;50.950;18.224;2023-07-30T11:53:16;4.30;;;1.20;;
57325;SDS011;43161;50.950;18.224;2023-07-30T11:55:43;5.70;;;1.50;;
57325;SDS011;43161;50.950;18.224;2023-07-30T11:58:10;4.70;;;1.40;;
57325;SDS011;43161;50.950;18.224;2023-07-30T12:00:37;4.90;;;1.50;;
57325;SDS011;43161;50.950;18.224;2023-07-30T12:03:03;5.90;;;1.40;;
57325;SDS011;43161;50.950;18.224;2023-07-30T12:05:36;6.30;;;1.40;;
57325;SDS011;43161;50.950;18.224;2023-07-30T12:08:04;6.20;;;1.70;;
57325;SDS011;43161;50.950;18.224;2023-07-30T12:13:23;4.80;;;1.60;;
57325;SDS011;43161;50.950;18.224;2023-07-30T12:15:52;3.70;;;1.20;;
57325;SDS011;43161;50.950;18.224;2023-07-30T12:18:19;4.20;;;1.20;;
57325;SDS011;43161;50.950;18.224;2023-07-30T12:20:46;5.30;;;1.30;;
57325;SDS011;43161;50.950;18.224;2023-07-30T12:23:12;4.00;;;1.20;;
57325;SDS011;43161;50.950;18.224;2023-07-30T12:25:38;3.30;;;1.20;;
57325;SDS011;43161;50.950;18.224;2023-07-30T12:28:04;4.10;;;1.30;;
57325;SDS011;43161;50.950;18.224;2023-07-30T12:30:30;3.70;;;1.20;;
57325;SDS011;43161;50.950;18.224;2023-07-30T12:32:56;3.30;;;1.10;;
57325;SDS011;43161;50.950;18.224;2023-07-30T12:35:22;2.90;;;1.00;;
57325;SDS011;43161;50.950;18.224;2023-07-30T12:37:49;3.60;;;0.90;;
57325;SDS011;43161;50.950;18.224;2023-07-30T12:40:14;3.20;;;1.20;;
57325;SDS011;43161;50.950;18.224;2023-07-30T12:42:40;3.80;;;1.10;;
57325;SDS011;43161;50.950;18.224;2023-07-30T12:45:06;4.40;;;1.10;;
57325;SDS011;43161;50.950;18.224;2023-07-30T12:47:33;3.30;;;1.10;;
57325;SDS011;43161;50.950;18.224;2023-07-30T12:50:01;4.00;;;1.40;;
57325;SDS011;43161;50.950;18.224;2023-07-30T12:52:27;4.20;;;1.30;;
57325;SDS011;43161;50.950;18.224;2023-07-30T12:54:53;3.70;;;1.20;;
57325;SDS011;43161;50.950;18.224;2023-07-30T12:57:18;6.00;;;1.50;;
57325;SDS011;43161;50.950;18.224;2023-07-30T12:59:44;5.30;;;1.40;;
57325;SDS011;43161;50.950;18.224;2023-07-30T13:02:09;4.40;;;1.30;;
57325;SDS011;43161;50.950;18.224;2023-07-30T13:04:36;3.70;;;1.10;;
57325;SDS011;43161;50.950;18.224;2023-07-30T13:07:02;4.90;;;1.40;;
57325;SDS011;43161;50.950;18.224;2023-07-30T13:09:28;6.10;;;1.20;;
57325;SDS011;43161;50.950;18.224;2023-07-30T13:11:54;4.90;;;1.40;;
57325;SDS011;43161;50.950;18.224;2023-07-30T13:14:19;5.10;;;1.40;;
57325;SDS011;43161;50.950;18.224;2023-07-30T13:16:45;5.60;;;1.30;;
57325;SDS011;43161;50.950;18.224;2023-07-30T13:19:13;7.20;;;1.40;;
57325;SDS011;43161;50.950;18.224;2023-07-30T13:21:39;16.60;;;1.60;;
57325;SDS011;43161;50.950;18.224;2023-07-30T13:24:05;5.20;;;1.30;;
57325;SDS011;43161;50.950;18.224;2023-07-30T13:26:31;4.30;;;1.20;;
57325;SDS011;43161;50.950;18.224;2023-07-30T13:28:56;7.20;;;1.50;;
57325;SDS011;43161;50.950;18.224;2023-07-30T13:31:22;4.00;;;1.30;;
57325;SDS011;43161;50.950;18.224;2023-07-30T13:33:48;4.00;;;1.20;;
57325;SDS011;43161;50.950;18.224;2023-07-30T13:36:14;4.30;;;1.10;;
57325;SDS011;43161;50.950;18.224;2023-07-30T13:38:40;3.60;;;1.10;;
57325;SDS011;43161;50.950;18.224;2023-07-30T13:41:06;6.50;;;1.30;;
57325;SDS011;43161;50.950;18.224;2023-07-30T13:43:32;6.20;;;1.50;;
57325;SDS011;43161;50.950;18.224;2023-07-30T13:45:58;4.00;;;1.40;;
57325;SDS011;43161;50.950;18.224;2023-07-30T13:48:24;5.60;;;1.40;;
57325;SDS011;43161;50.950;18.224;2023-07-30T13:50:51;5.20;;;1.40;;
57325;SDS011;43161;50.950;18.224;2023-07-30T13:53:18;5.40;;;1.30;;
57325;SDS011;43161;50.950;18.224;2023-07-30T13:55:43;5.70;;;1.30;;
57325;SDS011;43161;50.950;18.224;2023-07-30T13:58:09;4.40;;;1.20;;
57325;SDS011;43161;50.950;18.224;2023-07-30T14:00:35;5.10;;;1.40;;
57325;SDS011;43161;50.950;18.224;2023-07-30T14:03:01;4.30;;;1.30;;
57325;SDS011;43161;50.950;18.224;2023-07-30T14:05:27;6.70;;;1.40;;
57325;SDS011;43161;50.950;18.224;2023-07-30T14:07:55;3.90;;;1.30;;
57325;SDS011;43161;50.950;18.224;2023-07-30T14:10:24;4.90;;;1.40;;
57325;SDS011;43161;50.950;18.224;2023-07-30T14:12:50;8.80;;;1.60;;
57325;SDS011;43161;50.950;18.224;2023-07-30T14:15:15;11.20;;;1.70;;
57325;SDS011;43161;50.950;18.224;2023-07-30T14:17:41;7.30;;;1.50;;
57325;SDS011;43161;50.950;18.224;2023-07-30T14:20:08;10.50;;;1.50;;
57325;SDS011;43161;50.950;18.224;2023-07-30T14:22:34;7.20;;;1.90;;
57325;SDS011;43161;50.950;18.224;2023-07-30T14:25:01;6.40;;;1.40;;
57325;SDS011;43161;50.950;18.224;2023-07-30T14:27:27;5.00;;;1.50;;
57325;SDS011;43161;50.950;18.224;2023-07-30T14:29:52;4.40;;;1.30;;
57325;SDS011;43161;50.950;18.224;2023-07-30T14:32:21;5.50;;;1.50;;
57325;SDS011;43161;50.950;18.224;2023-07-30T14:34:48;4.20;;;1.30;;
57325;SDS011;43161;50.950;18.224;2023-07-30T14:37:14;5.10;;;1.30;;
57325;SDS011;43161;50.950;18.224;2023-07-30T14:39:39;4.90;;;1.40;;
57325;SDS011;43161;50.950;18.224;2023-07-30T14:42:06;5.90;;;1.30;;
57325;SDS011;43161;50.950;18.224;2023-07-30T14:44:34;6.50;;;1.40;;
57325;SDS011;43161;50.950;18.224;2023-07-30T14:46:59;4.40;;;1.20;;
57325;SDS011;43161;50.950;18.224;2023-07-30T14:49:25;4.50;;;1.40;;
57325;SDS011;43161;50.950;18.224;2023-07-30T14:51:52;5.30;;;1.10;;
57325;SDS011;43161;50.950;18.224;2023-07-30T14:54:17;5.30;;;1.30;;
57325;SDS011;43161;50.950;18.224;2023-07-30T14:56:43;4.40;;;1.20;;
57325;SDS011;43161;50.950;18.224;2023-07-30T14:59:09;4.50;;;1.30;;
57325;SDS011;43161;50.950;18.224;2023-07-30T15:01:35;5.70;;;1.30;;
57325;SDS011;43161;50.950;18.224;2023-07-30T15:04:01;5.20;;;1.40;;